Time;durP1;ratioP1;P1;durP2;ratioP2;P2;SDS_P1;SDS_P2;PMS_P1;PMS_P2;Temp;Humidity;BMP_temperature;BMP_pressure;BME280_temperature;BME280_humidity;BME280_pressure;Samples;Min_cycle;Max_cycle;Signal;HPM_P1;HPM_P2
2022/10/29 00:01:54;;;;;;;27.88;12.93;;;11.60;99.90;;;;;;5072929;28;20011;-75
2022/10/29 00:04:20;;;;;;;;;;;11.60;99.90;;;;;;5073309;28;20089;-75
2022/10/29 00:06:47;;;;;;;27.80;13.25;;;11.60;99.90;;;;;;5054772;28;19912;-75
2022/10/29 00:09:13;;;;;;;27.48;13.55;;;11.60;99.90;;;;;;5055000;28;20032;-76
2022/10/29 00:11:39;;;;;;;;;;;11.50;99.90;;;;;;5055165;28;20524;-75
2022/10/29 00:14:04;;;;;;;30.25;12.88;;;11.50;99.90;;;;;;5072649;28;19951;-76
2022/10/29 00:16:34;;;;;;;;;;;11.60;99.90;;;;;;5055040;28;20056;-75
2022/10/29 00:19:00;;;;;;;23.88;11.55;;;11.60;99.90;;;;;;5072483;28;19919;-76
2022/10/29 00:21:26;;;;;;;;;;;11.60;99.90;;;;;;5054983;28;20021;-75
2022/10/29 00:23:52;;;;;;;30.65;13.40;;;11.60;99.90;;;;;;5054703;28;19904;-75
2022/10/29 00:26:19;;;;;;;30.52;13.65;;;11.50;99.90;;;;;;5054947;28;20036;-75
2022/10/29 00:28:46;;;;;;;27.60;12.60;;;11.50;99.90;;;;;;5072313;28;20155;-75
2022/10/29 00:31:14;;;;;;;24.90;10.63;;;11.50;99.90;;;;;;5072350;28;20036;-75
2022/10/29 00:33:39;;;;;;;29.15;13.40;;;11.60;99.90;;;;;;5053689;28;20028;-75
2022/10/29 00:36:08;;;;;;;;;;;11.50;99.90;;;;;;5072787;28;20036;-75
2022/10/29 00:38:34;;;;;;;28.00;12.80;;;11.50;99.90;;;;;;5071916;28;19958;-75
2022/10/29 00:41:01;;;;;;;26.08;11.82;;;11.50;99.90;;;;;;5054228;28;20036;-75
2022/10/29 00:43:27;;;;;;;30.20;13.13;;;11.50;99.90;;;;;;5054274;28;20032;-75
2022/10/29 00:46:03;;;;;;;;;;;11.50;99.90;;;;;;5072556;28;20036;-75
2022/10/29 00:48:33;;;;;;;29.25;12.85;;;11.50;99.90;;;;;;5054608;28;19923;-75
2022/10/29 00:51:02;;;;;;;30.05;12.60;;;11.50;99.90;;;;;;5054282;28;20032;-75
2022/10/29 00:53:31;;;;;;;31.55;13.93;;;11.40;99.90;;;;;;5053759;28;20017;-75
2022/10/29 00:55:58;;;;;;;38.55;14.85;;;11.50;99.90;;;;;;5071949;28;20068;-75
2022/10/29 00:58:24;;;;;;;37.10;15.10;;;11.40;99.90;;;;;;5053346;28;20095;-75
2022/10/29 01:00:50;;;;;;;28.42;12.98;;;11.40;99.90;;;;;;5053855;28;20040;-75
2022/10/29 01:03:15;;;;;;;;;;;11.40;99.90;;;;;;5054440;28;20023;-75
2022/10/29 01:05:42;;;;;;;40.38;14.05;;;11.40;99.90;;;;;;5053968;28;19974;-75
2022/10/29 01:08:09;;;;;;;41.85;14.38;;;11.40;99.90;;;;;;5053888;28;20094;-75
2022/10/29 01:10:55;;;;;;;33.75;13.68;;;11.40;99.90;;;;;;5071775;28;20389;-75
2022/10/29 01:13:50;;;;;;;27.88;12.45;;;11.40;99.90;;;;;;5071665;28;20144;-75
2022/10/29 01:16:54;;;;;;;26.08;11.57;;;11.50;99.90;;;;;;5035971;28;20036;-75
2022/10/29 01:19:41;;;;;;;24.38;10.40;;;11.50;99.90;;;;;;5071700;28;20112;-75
2022/10/29 01:22:28;;;;;;;27.17;11.32;;;11.40;99.90;;;;;;5072290;28;20029;-75
2022/10/29 01:25:38;;;;;;;27.92;11.98;;;11.50;99.90;;;;;;5053544;28;20035;-75
2022/10/29 01:28:33;;;;;;;44.92;14.02;;;11.40;99.90;;;;;;5053540;28;20058;-75
2022/10/29 01:31:18;;;;;;;38.92;15.68;;;11.40;99.90;;;;;;5052959;28;20020;-75
2022/10/29 01:33:57;;;;;;;44.80;16.77;;;11.40;99.90;;;;;;5053918;28;20021;-75
2022/10/29 01:36:29;;;;;;;49.20;19.52;;;11.40;99.90;;;;;;5072157;28;20036;-75
2022/10/29 01:39:14;;;;;;;43.53;15.32;;;11.40;99.90;;;;;;5071280;28;20032;-75
2022/10/29 01:42:01;;;;;;;34.38;13.63;;;11.40;99.90;;;;;;5056778;28;20240;-75
2022/10/29 01:45:05;;;;;;;29.02;13.00;;;11.40;99.90;;;;;;5053076;28;20012;-75
2022/10/29 01:47:39;;;;;;;29.20;11.68;;;11.40;99.90;;;;;;5036397;28;20032;-75
2022/10/29 01:50:09;;;;;;;35.70;13.05;;;11.40;99.90;;;;;;5055234;28;20178;-75
2022/10/29 01:52:36;;;;;;;31.92;13.57;;;11.40;99.90;;;;;;5054886;28;20028;-75
2022/10/29 01:55:02;;;;;;;26.83;11.15;;;11.40;99.90;;;;;;5054923;28;20405;-75
2022/10/29 01:57:31;;;;;;;22.38;10.15;;;11.40;99.90;;;;;;5071555;28;20043;-75
2022/10/29 02:00:09;;;;;;;23.85;10.60;;;11.40;99.90;;;;;;5052584;28;20028;-74
2022/10/29 02:03:07;;;;;;;32.58;11.95;;;11.40;99.90;;;;;;5070322;28;20031;-74
2022/10/29 02:05:56;;;;;;;38.13;14.95;;;11.40;99.90;;;;;;5070721;28;20088;-74
2022/10/29 02:08:35;;;;;;;34.42;13.73;;;11.50;99.90;;;;;;5070775;28;20032;-75
2022/10/29 02:11:16;;;;;;;35.85;14.70;;;11.40;99.90;;;;;;5070463;28;20036;-74
2022/10/29 02:14:06;;;;;;;37.55;13.25;;;11.40;99.90;;;;;;5052465;28;20417;-74
2022/10/29 02:16:33;;;;;;;39.72;14.20;;;11.40;99.90;;;;;;5052843;28;20205;-75
2022/10/29 02:18:59;;;;;;;40.45;15.23;;;11.40;99.90;;;;;;5052464;28;20075;-76
2022/10/29 02:21:24;;;;;;;36.22;13.57;;;11.40;99.90;;;;;;5070358;28;20039;-76
2022/10/29 02:23:50;;;;;;;;;;;11.40;99.90;;;;;;5052498;28;20395;-75
2022/10/29 02:26:16;;;;;;;25.42;12.05;;;11.30;99.90;;;;;;5052112;28;19963;-75
2022/10/29 02:28:42;;;;;;;;;;;11.30;99.90;;;;;;5052382;28;20028;-76
2022/10/29 02:31:07;;;;;;;22.50;10.32;;;11.30;99.90;;;;;;5070220;28;19950;-76
2022/10/29 02:33:33;;;;;;;;;;;11.30;99.90;;;;;;5070399;28;20074;-76
2022/10/29 02:35:58;;;;;;;27.90;11.70;;;11.30;99.90;;;;;;5052261;28;19912;-75
2022/10/29 02:38:24;;;;;;;;;;;11.30;99.90;;;;;;5052293;28;20132;-76
2022/10/29 02:40:49;;;;;;;29.27;12.68;;;11.30;99.90;;;;;;5051831;28;19916;-76
2022/10/29 02:43:15;;;;;;;28.08;12.45;;;11.30;99.90;;;;;;5052064;28;20032;-76
2022/10/29 02:45:41;;;;;;;;;;;11.40;99.90;;;;;;5052612;28;20130;-75
2022/10/29 02:48:06;;;;;;;32.40;12.20;;;11.30;99.90;;;;;;5070079;28;19915;-76
2022/10/29 02:50:32;;;;;;;;;;;11.30;99.90;;;;;;5053240;28;20059;-75
2022/10/29 02:52:57;;;;;;;24.13;11.05;;;11.40;99.90;;;;;;5052287;28;19912;-76
2022/10/29 02:55:23;;;;;;;;;;;11.40;99.90;;;;;;5070454;28;20048;-75
2022/10/29 02:57:48;;;;;;;21.85;10.23;;;11.40;99.90;;;;;;5052158;28;20361;-76
2022/10/29 03:00:14;;;;;;;19.90;9.85;;;11.40;99.90;;;;;;5052251;28;20032;-75
2022/10/29 03:02:40;;;;;;;27.15;12.57;;;11.40;99.90;;;;;;5052071;28;20111;-75
2022/10/29 03:05:06;;;;;;;25.45;11.65;;;11.40;99.90;;;;;;5052063;28;20040;-76
2022/10/29 03:07:37;;;;;;;21.67;10.73;;;11.40;99.90;;;;;;5069555;28;20037;-75
2022/10/29 03:10:04;;;;;;;26.58;12.10;;;11.40;99.90;;;;;;5070204;28;20102;-76
2022/10/29 03:12:30;;;;;;;25.73;11.88;;;11.40;99.90;;;;;;5069861;28;20155;-75
2022/10/29 03:14:55;;;;;;;;;;;11.30;99.90;;;;;;5070560;28;20104;-75
2022/10/29 03:17:21;;;;;;;26.40;12.43;;;11.40;99.90;;;;;;5052449;28;19904;-76
2022/10/29 03:19:47;;;;;;;;;;;11.40;99.90;;;;;;5052390;28;20064;-75
2022/10/29 03:22:12;;;;;;;30.73;13.70;;;11.40;99.90;;;;;;5052433;28;20530;-75
2022/10/29 03:24:38;;;;;;;;;;;11.40;99.90;;;;;;5070505;28;20570;-75
2022/10/29 03:27:03;;;;;;;23.58;11.48;;;11.40;99.90;;;;;;5052589;28;19911;-76
2022/10/29 03:29:29;;;;;;;26.75;12.02;;;11.40;99.90;;;;;;5070360;28;20284;-76
2022/10/29 03:31:54;;;;;;;;;;;11.40;99.90;;;;;;5052436;28;20056;-76
2022/10/29 03:34:20;;;;;;;23.77;10.23;;;11.40;99.90;;;;;;5052799;28;19908;-75
2022/10/29 03:36:45;;;;;;;;;;;11.40;99.90;;;;;;5052736;28;20119;-76
2022/10/29 03:39:11;;;;;;;24.45;9.93;;;11.40;99.90;;;;;;5052417;28;19923;-76
2022/10/29 03:41:36;;;;;;;19.60;8.85;;;11.40;99.90;;;;;;5052740;28;20025;-76
2022/10/29 03:44:02;;;;;;;;;;;11.30;99.90;;;;;;5054222;28;20032;-75
2022/10/29 03:46:28;;;;;;;21.80;11.50;;;11.40;99.90;;;;;;5052111;28;19909;-76
2022/10/29 03:48:53;;;;;;;;;;;11.40;99.90;;;;;;5071288;28;20496;-76
2022/10/29 03:51:19;;;;;;;22.20;10.70;;;11.40;99.90;;;;;;5052881;28;19912;-76
2022/10/29 03:53:44;;;;;;;;;;;11.40;99.90;;;;;;5071154;28;20032;-76
2022/10/29 03:56:10;;;;;;;21.35;10.38;;;11.40;99.90;;;;;;5071028;28;19963;-77
2022/10/29 03:58:35;;;;;;;;;;;11.30;99.90;;;;;;5053110;28;20098;-76
2022/10/29 04:01:07;;;;;;;23.75;11.02;;;11.30;99.90;;;;;;5053195;28;20445;-77
2022/10/29 04:03:34;;;;;;;30.48;12.85;;;11.40;99.90;;;;;;5070849;28;20075;-77
2022/10/29 04:06:06;;;;;;;22.08;10.80;;;11.40;99.90;;;;;;5070426;28;20025;-77
2022/10/29 04:08:32;;;;;;;24.95;13.35;;;11.40;99.90;;;;;;5054122;28;20032;-76
2022/10/29 04:10:58;;;;;;;;;;;11.40;99.90;;;;;;5059216;28;20039;-77
2022/10/29 04:13:23;;;;;;;26.88;12.48;;;11.40;99.90;;;;;;5074111;28;20453;-76
2022/10/29 04:15:52;;;;;;;;;;;11.40;99.90;;;;;;5074136;28;20025;-76
2022/10/29 04:18:17;;;;;;;29.63;13.38;;;11.40;99.90;;;;;;5073128;28;19978;-77
2022/10/29 04:20:43;;;;;;;;;;;11.40;99.90;;;;;;5055279;28;20419;-76
2022/10/29 04:23:08;;;;;;;26.63;13.15;;;11.40;99.90;;;;;;5073400;28;19908;-76
2022/10/29 04:25:34;;;;;;;;;;;11.50;99.90;;;;;;5073403;28;20028;-77
2022/10/29 04:28:00;;;;;;;22.42;11.48;;;11.40;99.90;;;;;;5055262;28;20380;-76
2022/10/29 04:30:25;;;;;;;;;;;11.40;99.90;;;;;;5073660;28;20032;-77
2022/10/29 04:32:56;;;;;;;19.80;10.63;;;11.40;99.90;;;;;;5054961;28;19914;-76
2022/10/29 04:35:21;;;;;;;19.65;9.98;;;11.40;99.90;;;;;;5055233;28;20036;-76
2022/10/29 04:37:47;;;;;;;;;;;11.30;99.90;;;;;;5073506;28;20028;-77
2022/10/29 04:40:12;;;;;;;15.82;7.18;;;11.50;99.90;;;;;;5054721;28;20715;-77
2022/10/29 04:42:39;;;;;;;15.48;7.43;;;11.50;99.90;;;;;;5054915;28;20021;-76
2022/10/29 04:45:06;;;;;;;15.88;8.15;;;11.40;99.90;;;;;;5055034;28;20070;-77
2022/10/29 04:47:32;;;;;;;15.15;7.78;;;11.40;99.90;;;;;;5054702;28;20024;-76
2022/10/29 04:49:58;;;;;;;14.80;8.15;;;11.40;99.90;;;;;;5054352;28;20025;-77
2022/10/29 04:52:24;;;;;;;;;;;11.30;99.90;;;;;;5072789;28;20059;-76
2022/10/29 04:54:49;;;;;;;17.50;8.18;;;11.40;99.90;;;;;;5072532;28;19959;-76
2022/10/29 04:57:15;;;;;;;;;;;11.40;99.90;;;;;;5073297;28;20036;-76
2022/10/29 04:59:40;;;;;;;20.85;9.23;;;11.40;99.90;;;;;;5073047;28;19997;-74
2022/10/29 05:02:06;;;;;;;;;;;11.40;99.90;;;;;;5054150;28;20416;-74
2022/10/29 05:04:31;;;;;;;18.00;9.10;;;11.40;99.90;;;;;;5072696;28;19954;-74
2022/10/29 05:06:57;;;;;;;;;;;11.30;99.90;;;;;;5054785;28;20036;-75
2022/10/29 05:09:23;;;;;;;20.25;10.35;;;11.40;99.90;;;;;;5054603;28;19912;-77
2022/10/29 05:11:48;;;;;;;;;;;11.30;99.90;;;;;;5073164;28;20051;-76
2022/10/29 05:14:14;;;;;;;29.70;12.20;;;11.30;99.90;;;;;;5072524;28;19908;-76
2022/10/29 05:16:39;;;;;;;;;;;11.30;99.90;;;;;;5073271;28;20024;-76
2022/10/29 05:19:05;;;;;;;26.48;10.52;;;11.30;99.90;;;;;;5072365;28;20277;-76
2022/10/29 05:21:31;;;;;;;25.73;12.13;;;11.30;99.90;;;;;;5072674;28;20020;-76
2022/10/29 05:23:56;;;;;;;;;;;11.30;99.90;;;;;;5072962;28;20034;-77
2022/10/29 05:26:22;;;;;;;26.25;11.13;;;11.30;99.90;;;;;;5054222;28;19905;-77
2022/10/29 05:28:49;;;;;;;;;;;11.30;99.90;;;;;;5055368;28;20566;-76
2022/10/29 05:31:14;;;;;;;24.95;11.38;;;11.30;99.90;;;;;;5054485;28;19908;-76
2022/10/29 05:33:40;;;;;;;;;;;11.30;99.90;;;;;;5072296;28;20040;-77
2022/10/29 05:36:06;;;;;;;23.30;10.40;;;11.30;99.90;;;;;;5072523;28;19997;-76
2022/10/29 05:38:31;;;;;;;;;;;11.40;99.90;;;;;;5072293;28;20028;-77
2022/10/29 05:40:58;;;;;;;30.00;13.80;;;11.40;99.90;;;;;;5072141;28;19913;-77
2022/10/29 05:43:24;;;;;;;32.25;12.93;;;11.30;99.90;;;;;;5054386;28;20028;-77
2022/10/29 05:45:49;;;;;;;;;;;11.30;99.90;;;;;;5054777;28;20031;-76
2022/10/29 05:48:15;;;;;;;67.72;39.28;;;11.40;99.90;;;;;;5054088;28;19912;-77
2022/10/29 05:50:40;;;;;;;;;;;11.30;99.90;;;;;;5054448;28;20078;-76
2022/10/29 05:53:10;;;;;;;36.33;17.63;;;11.40;99.90;;;;;;5071159;28;19916;-77
2022/10/29 05:55:36;;;;;;;29.90;15.20;;;11.40;99.90;;;;;;5053288;28;20100;-77
2022/10/29 05:58:04;;;;;;;29.08;13.80;;;11.40;99.90;;;;;;5071986;28;20090;-76
2022/10/29 06:00:32;;;;;;;30.08;14.32;;;11.40;99.90;;;;;;5072077;28;20032;-76
2022/10/29 06:02:58;;;;;;;31.17;14.93;;;11.50;99.90;;;;;;5071789;28;20055;-77
2022/10/29 06:05:24;;;;;;;;;;;11.40;99.90;;;;;;5072583;28;20503;-76
2022/10/29 06:07:57;;;;;;;30.23;13.77;;;11.50;99.90;;;;;;5072878;28;19911;-76
2022/10/29 06:10:25;;;;;;;29.00;13.85;;;11.60;99.90;;;;;;5072516;28;20024;-77
2022/10/29 06:12:51;;;;;;;29.20;14.55;;;11.60;99.90;;;;;;5071752;28;20053;-76
2022/10/29 06:15:16;;;;;;;;;;;11.60;99.90;;;;;;5072629;28;20119;-77
2022/10/29 06:17:43;;;;;;;29.50;14.73;;;11.60;99.90;;;;;;5054519;28;19908;-76
2022/10/29 06:20:10;;;;;;;31.35;14.80;;;11.60;99.90;;;;;;5054341;28;20131;-75
2022/10/29 06:22:35;;;;;;;26.67;13.95;;;11.60;99.90;;;;;;5054826;28;20024;-74
2022/10/29 06:25:01;;;;;;;;;;;11.70;99.90;;;;;;5055575;28;20032;-75
2022/10/29 06:27:27;;;;;;;24.98;12.15;;;11.70;99.90;;;;;;5055478;28;20281;-75
2022/10/29 06:29:52;;;;;;;32.60;15.15;;;11.80;99.90;;;;;;5054303;28;20036;-74
2022/10/29 06:32:18;;;;;;;27.02;14.27;;;11.70;99.90;;;;;;5070200;28;20020;-74
2022/10/29 06:34:44;;;;;;;27.40;13.73;;;11.80;99.90;;;;;;5070202;28;20028;-74
2022/10/29 06:37:09;;;;;;;;;;;11.90;99.90;;;;;;5052472;28;20495;-74
2022/10/29 06:39:35;;;;;;;24.60;13.30;;;11.90;99.90;;;;;;5052021;28;20402;-74
2022/10/29 06:42:01;;;;;;;;;;;11.90;99.90;;;;;;5052663;28;20028;-75
2022/10/29 06:44:26;;;;;;;31.15;15.55;;;11.90;99.90;;;;;;5052875;28;20027;-76
2022/10/29 06:46:52;;;;;;;27.05;13.52;;;11.90;99.90;;;;;;5070603;28;20649;-76
2022/10/29 06:49:17;;;;;;;;;;;11.90;99.90;;;;;;5053155;28;20016;-76
2022/10/29 06:51:43;;;;;;;29.25;14.98;;;11.90;99.90;;;;;;5070443;28;19912;-74
2022/10/29 06:54:08;;;;;;;28.52;14.63;;;12.00;99.90;;;;;;5052346;28;20028;-75
2022/10/29 06:56:34;;;;;;;28.52;14.10;;;12.10;99.90;;;;;;5070324;28;20025;-74
2022/10/29 06:58:59;;;;;;;;;;;12.10;99.90;;;;;;5070872;28;20029;-74
2022/10/29 07:01:31;;;;;;;31.85;16.25;;;12.00;99.90;;;;;;5051908;28;19908;-74
2022/10/29 07:03:57;;;;;;;30.17;16.42;;;12.10;99.90;;;;;;5070600;28;20425;-75
2022/10/29 07:06:23;;;;;;;31.67;15.50;;;12.20;99.90;;;;;;5070438;28;20473;-75
2022/10/29 07:08:48;;;;;;;;;;;12.10;99.90;;;;;;5052578;28;20590;-75
2022/10/29 07:11:14;;;;;;;42.25;20.77;;;12.20;99.90;;;;;;5069859;28;19919;-75
2022/10/29 07:13:40;;;;;;;46.47;19.55;;;12.30;99.90;;;;;;5070362;28;20064;-74
2022/10/29 07:16:06;;;;;;;39.28;18.70;;;12.30;99.90;;;;;;5052363;28;20485;-75
2022/10/29 07:18:31;;;;;;;;;;;12.30;99.90;;;;;;5052475;28;20404;-74
2022/10/29 07:20:57;;;;;;;35.00;18.42;;;12.30;99.90;;;;;;5051678;28;19916;-74
2022/10/29 07:23:23;;;;;;;;;;;12.30;99.90;;;;;;5070720;28;20029;-75
2022/10/29 07:25:52;;;;;;;38.03;19.45;;;12.30;99.90;;;;;;5070163;28;19908;-74
2022/10/29 07:28:22;;;;;;;31.83;17.35;;;12.40;99.90;;;;;;5052103;28;20070;-75
2022/10/29 07:30:49;;;;;;;40.42;19.17;;;12.40;99.90;;;;;;5069780;28;20369;-74
2022/10/29 07:33:15;;;;;;;50.85;22.33;;;12.40;99.90;;;;;;5051988;28;20025;-74
2022/10/29 07:35:42;;;;;;;37.55;19.25;;;12.50;99.90;;;;;;5070603;28;20029;-75
2022/10/29 07:38:10;;;;;;;44.10;18.92;;;12.60;99.90;;;;;;5070098;28;20497;-74
2022/10/29 07:40:46;;;;;;;39.55;20.20;;;12.50;99.90;;;;;;5052043;28;20481;-75
2022/10/29 07:43:12;;;;;;;32.28;16.80;;;12.60;99.90;;;;;;5052903;28;20092;-75
2022/10/29 07:45:37;;;;;;;;;;;12.60;99.90;;;;;;5074523;28;20879;-75
2022/10/29 07:48:06;;;;;;;41.53;19.55;;;12.60;99.90;;;;;;5055859;28;19912;-74
2022/10/29 07:50:32;;;;;;;37.80;18.50;;;12.60;99.90;;;;;;5074161;28;20020;-75
2022/10/29 07:52:58;;;;;;;;;;;12.60;99.90;;;;;;5056636;28;20027;-74
2022/10/29 07:55:24;;;;;;;31.88;16.65;;;12.70;99.90;;;;;;5074144;28;19904;-75
2022/10/29 07:57:54;;;;;;;;;;;12.70;99.90;;;;;;5056941;28;20024;-75
2022/10/29 08:00:20;;;;;;;42.72;20.38;;;12.70;99.90;;;;;;5055766;28;19963;-75
2022/10/29 08:02:52;;;;;;;;;;;12.70;99.90;;;;;;5074028;28;20433;-74
2022/10/29 08:05:17;;;;;;;37.45;18.00;;;12.80;99.90;;;;;;5073759;28;19908;-74
2022/10/29 08:07:43;;;;;;;;;;;12.70;99.90;;;;;;5074248;28;20043;-74
2022/10/29 08:10:08;;;;;;;38.97;18.92;;;12.70;99.90;;;;;;5055986;28;20001;-74
2022/10/29 08:12:34;;;;;;;43.72;19.02;;;12.70;99.90;;;;;;5073844;28;20040;-74
2022/10/29 08:15:00;;;;;;;;;;;12.80;99.90;;;;;;5074311;28;20032;-75
2022/10/29 08:17:28;;;;;;;39.25;18.00;;;12.80;99.90;;;;;;5055964;28;20372;-75
2022/10/29 08:19:54;;;;;;;44.22;18.60;;;12.70;99.90;;;;;;5073921;28;20116;-74
2022/10/29 08:22:19;;;;;;;;;;;12.80;99.90;;;;;;5056412;28;20139;-74
2022/10/29 08:24:45;;;;;;;48.42;19.50;;;12.80;99.90;;;;;;5073297;28;19910;-75
2022/10/29 08:27:11;;;;;;;;;;;12.80;99.90;;;;;;5074300;28;20473;-75
2022/10/29 08:29:36;;;;;;;46.90;22.05;;;12.80;99.90;;;;;;5074279;28;19939;-75
2022/10/29 08:32:02;;;;;;;;;;;12.80;99.90;;;;;;5055913;28;20474;-74
2022/10/29 08:34:27;;;;;;;44.28;22.92;;;12.90;99.90;;;;;;5056006;28;19909;-75
2022/10/29 08:36:53;;;;;;;;;;;12.90;99.90;;;;;;5056862;28;20036;-75
2022/10/29 08:39:18;;;;;;;40.65;19.45;;;12.90;99.90;;;;;;5055757;28;19943;-74
2022/10/29 08:41:53;;;;;;;;;;;13.00;99.90;;;;;;5056393;28;20118;-74
2022/10/29 08:44:47;;;;;;;36.80;19.23;;;13.00;99.90;;;;;;5075925;28;19953;-75
2022/10/29 08:47:20;;;;;;;38.75;20.38;;;12.90;99.90;;;;;;5056055;28;20037;-75
2022/10/29 08:49:57;;;;;;;35.65;18.52;;;13.00;99.90;;;;;;5072349;28;20017;-74
2022/10/29 08:52:27;;;;;;;35.40;19.55;;;13.00;99.90;;;;;;5072052;28;20054;-74
2022/10/29 08:55:17;;;;;;;37.58;20.33;;;13.10;99.90;;;;;;5053346;28;20028;-75
2022/10/29 08:57:56;;;;;;;37.05;19.35;;;13.10;99.90;;;;;;5072055;28;20123;-74
2022/10/29 09:00:32;;;;;;;39.03;20.65;;;13.10;99.90;;;;;;5072141;28;20036;-74
2022/10/29 09:02:59;;;;;;;38.17;20.15;;;13.10;99.90;;;;;;5054632;28;20496;-75
2022/10/29 09:06:00;;;;;;;38.20;20.70;;;13.20;99.90;;;;;;5072993;28;20029;-76
2022/10/29 09:08:51;;;;;;;37.03;19.83;;;13.20;99.90;;;;;;5024017;28;20090;-75
2022/10/29 09:11:35;;;;;;;42.65;20.52;;;13.20;99.90;;;;;;5054268;28;20428;-75
2022/10/29 09:14:06;;;;;;;44.28;21.42;;;13.20;99.90;;;;;;5053766;28;20053;-74
2022/10/29 09:17:11;;;;;;;42.75;21.75;;;13.10;99.90;;;;;;5053862;28;20111;-75
2022/10/29 09:20:01;;;;;;;35.65;20.73;;;13.10;99.90;;;;;;5042565;28;20299;-75
2022/10/29 09:22:37;;;;;;;39.10;21.02;;;13.10;99.90;;;;;;5053622;28;20028;-75
2022/10/29 09:25:31;;;;;;;44.80;24.10;;;13.20;99.90;;;;;;5071474;28;20394;-75
2022/10/29 09:28:15;;;;;;;44.60;22.50;;;13.20;99.90;;;;;;5061801;28;20043;-75
2022/10/29 09:30:57;;;;;;;41.00;21.85;;;13.20;99.90;;;;;;5071307;28;20043;-75
2022/10/29 09:33:24;;;;;;;45.70;23.90;;;13.20;99.90;;;;;;5071122;28;20056;-74
2022/10/29 09:35:56;;;;;;;48.50;25.13;;;13.30;99.90;;;;;;5071459;28;20032;-76
2022/10/29 09:38:28;;;;;;;44.60;24.40;;;13.20;99.90;;;;;;5071498;28;20158;-74
2022/10/29 09:40:56;;;;;;;48.63;26.08;;;13.20;99.90;;;;;;5053288;28;20048;-75
2022/10/29 09:43:36;;;;;;;44.10;23.80;;;13.20;99.90;;;;;;5053392;28;20017;-74
2022/10/29 09:46:20;;;;;;;42.60;24.52;;;13.20;99.90;;;;;;5071717;28;20081;-75
2022/10/29 09:49:25;;;;;;;46.13;25.00;;;13.20;99.90;;;;;;5071412;28;20028;-75
2022/10/29 09:52:03;;;;;;;48.22;26.75;;;13.20;99.90;;;;;;5071167;28;20565;-74
2022/10/29 09:54:30;;;;;;;47.42;25.77;;;13.30;99.90;;;;;;5053530;28;20020;-75
2022/10/29 09:56:58;;;;;;;47.53;25.38;;;13.30;99.90;;;;;;5053604;28;20390;-75
2022/10/29 09:59:32;;;;;;;47.05;24.67;;;13.30;99.90;;;;;;5053650;28;20035;-74
2022/10/29 10:01:58;;;;;;;45.58;24.85;;;13.30;99.90;;;;;;5071118;28;20058;-75
2022/10/29 10:04:27;;;;;;;44.25;24.73;;;13.40;99.90;;;;;;5072023;28;20109;-74
2022/10/29 10:07:05;;;;;;;47.58;25.63;;;13.40;99.90;;;;;;5070213;28;20028;-74
2022/10/29 10:09:52;;;;;;;47.95;24.73;;;13.40;99.90;;;;;;5071309;28;20027;-75
2022/10/29 10:12:18;;;;;;;;;;;13.40;99.90;;;;;;5053729;28;20048;-75
2022/10/29 10:14:45;;;;;;;44.63;25.67;;;13.40;99.90;;;;;;5052824;28;19908;-74
2022/10/29 10:17:11;;;;;;;45.33;24.38;;;13.50;99.90;;;;;;5053124;28;20047;-74
2022/10/29 10:19:41;;;;;;;;;;;13.50;99.90;;;;;;5071467;28;20115;-75
2022/10/29 10:22:19;;;;;;;55.95;26.80;;;13.60;99.90;;;;;;5052955;28;20378;-75
2022/10/29 10:24:45;;;;;;;49.90;25.65;;;13.60;99.90;;;;;;5053247;28;20025;-75
2022/10/29 10:27:17;;;;;;;48.10;26.75;;;13.70;99.90;;;;;;5070880;28;20033;-75
2022/10/29 10:29:42;;;;;;;46.85;24.83;;;13.90;99.90;;;;;;5053126;28;20029;-75
2022/10/29 10:32:13;;;;;;;40.78;24.05;;;14.10;99.90;;;;;;5053046;28;20032;-75
2022/10/29 10:34:39;;;;;;;42.15;24.17;;;14.30;99.90;;;;;;5070855;28;20036;-75
2022/10/29 10:37:08;;;;;;;40.30;22.92;;;14.40;99.90;;;;;;5052435;28;20047;-75
2022/10/29 10:39:39;;;;;;;42.53;23.52;;;14.50;99.90;;;;;;5052487;28;20435;-75
2022/10/29 10:42:27;;;;;;;38.42;23.63;;;14.50;99.90;;;;;;5070415;28;20500;-75
2022/10/29 10:44:58;;;;;;;39.05;24.50;;;14.60;99.90;;;;;;5070263;28;20056;-75
2022/10/29 10:47:29;;;;;;;36.50;23.30;;;14.60;99.90;;;;;;5052488;28;20119;-75
2022/10/29 10:50:18;;;;;;;34.72;22.52;;;14.70;99.90;;;;;;5051987;28;20638;-75
2022/10/29 10:52:45;;;;;;;44.08;26.05;;;14.80;99.90;;;;;;5069759;28;20056;-75
2022/10/29 10:55:32;;;;;;;44.85;24.48;;;14.80;99.90;;;;;;5070274;28;20036;-75
2022/10/29 10:58:09;;;;;;;;;;;14.80;99.90;;;;;;5052594;28;20576;-75
2022/10/29 11:00:58;;;;;;;39.33;22.17;;;14.70;99.90;;;;;;5051682;28;20129;-75
2022/10/29 11:03:28;;;;;;;38.17;23.20;;;14.70;99.90;;;;;;5071388;28;20024;-75
2022/10/29 11:06:14;;;;;;;36.33;21.23;;;14.60;99.90;;;;;;5052654;28;20036;-75
2022/10/29 11:08:46;;;;;;;45.42;26.60;;;14.50;99.90;;;;;;5065006;28;20082;-75
2022/10/29 11:11:23;;;;;;;49.03;26.50;;;14.40;99.90;;;;;;5052002;28;20024;-75
2022/10/29 11:13:50;;;;;;;47.47;24.52;;;14.20;99.90;;;;;;5052296;28;20121;-73
2022/10/29 11:16:27;;;;;;;47.72;26.25;;;14.10;99.90;;;;;;5070400;28;20021;-75
2022/10/29 11:19:03;;;;;;;52.30;27.52;;;14.20;99.90;;;;;;5055151;28;20475;-75
2022/10/29 11:21:53;;;;;;;48.78;26.00;;;14.20;99.90;;;;;;5056074;28;20467;-75
2022/10/29 11:24:40;;;;;;;43.65;24.77;;;14.30;99.90;;;;;;5074211;28;20028;-75
2022/10/29 11:27:31;;;;;;;46.08;25.40;;;14.30;99.90;;;;;;5056122;28;20120;-75
2022/10/29 11:30:02;;;;;;;47.83;28.20;;;14.40;99.90;;;;;;5073785;28;20024;-75
2022/10/29 11:32:43;;;;;;;50.95;27.90;;;14.50;99.90;;;;;;5073843;28;20040;-75
2022/10/29 11:35:16;;;;;;;52.65;28.48;;;14.60;99.90;;;;;;5055768;28;20539;-75
2022/10/29 11:38:07;;;;;;;52.45;29.33;;;14.60;99.90;;;;;;5073721;28;20028;-74
2022/10/29 11:41:04;;;;;;;60.22;30.88;;;14.60;99.90;;;;;;5055517;28;20528;-75
2022/10/29 11:43:31;;;;;;;55.13;28.40;;;14.50;99.90;;;;;;5073906;28;20021;-75
2022/10/29 11:46:16;;;;;;;51.65;30.27;;;14.50;99.90;;;;;;5055812;28;20032;-75
2022/10/29 11:48:44;;;;;;;54.33;28.80;;;14.40;99.90;;;;;;5055444;28;20435;-76
2022/10/29 11:51:35;;;;;;;65.95;33.05;;;14.40;99.90;;;;;;5056013;28;20024;-75
2022/10/29 11:54:22;;;;;;;67.55;35.25;;;14.30;99.90;;;;;;5073601;28;20166;-75
2022/10/29 11:56:59;;;;;;;75.50;36.45;;;14.20;99.90;;;;;;5055023;28;20031;-75
2022/10/29 11:59:27;;;;;;;;;;;14.10;99.90;;;;;;5056014;28;20515;-75
2022/10/29 12:01:56;;;;;;;71.20;36.33;;;14.00;99.90;;;;;;5055958;28;19916;-75
2022/10/29 12:04:40;;;;;;;73.18;38.00;;;13.90;99.90;;;;;;5055532;28;20049;-75
2022/10/29 12:07:47;;;;;;;82.35;37.55;;;13.90;99.90;;;;;;5055047;28;20020;-75
2022/10/29 12:10:39;;;;;;;78.07;35.90;;;13.80;99.90;;;;;;5072995;28;20037;-75
2022/10/29 12:13:33;;;;;;;80.90;37.25;;;13.80;99.90;;;;;;5051275;28;20058;-75
2022/10/29 12:16:06;;;;;;;76.95;37.47;;;13.70;99.90;;;;;;5038639;28;20048;-75
2022/10/29 12:18:43;;;;;;;76.85;38.00;;;13.70;99.90;;;;;;5055585;28;20528;-74
2022/10/29 12:21:22;;;;;;;78.13;39.17;;;13.60;99.90;;;;;;5055705;28;20320;-74
2022/10/29 12:23:57;;;;;;;75.45;37.05;;;13.60;99.90;;;;;;5055687;28;20051;-75
2022/10/29 12:26:27;;;;;;;84.13;40.05;;;13.60;99.90;;;;;;5055429;28;20039;-75
2022/10/29 12:29:21;;;;;;;79.25;37.47;;;13.60;99.90;;;;;;5071989;28;20028;-76
2022/10/29 12:32:24;;;;;;;82.63;39.92;;;13.70;99.90;;;;;;5073458;28;20035;-75
2022/10/29 12:35:18;;;;;;;90.80;42.70;;;13.60;99.90;;;;;;5073356;28;20028;-75
2022/10/29 12:37:53;;;;;;;89.95;40.67;;;13.60;99.90;;;;;;5058482;28;20037;-75
2022/10/29 12:40:30;;;;;;;82.47;40.33;;;13.60;99.90;;;;;;5072942;28;20458;-75
2022/10/29 12:43:01;;;;;;;78.13;40.60;;;13.60;99.90;;;;;;5072377;28;20468;-75
2022/10/29 12:45:53;;;;;;;84.50;39.30;;;13.70;99.90;;;;;;5055250;28;20071;-75
2022/10/29 12:49:16;;;;;;;83.15;40.15;;;13.70;99.90;;;;;;5073066;28;20025;-74
2022/10/29 12:51:56;;;;;;;79.80;39.05;;;13.70;99.90;;;;;;4991253;28;20414;-74
2022/10/29 12:54:36;;;;;;;71.75;36.67;;;13.70;99.90;;;;;;4991016;28;20041;-74
2022/10/29 12:57:18;;;;;;;76.03;38.47;;;13.70;99.90;;;;;;5055631;28;20048;-75
2022/10/29 12:59:44;;;;;;;76.03;39.78;;;13.60;99.90;;;;;;5054611;28;20405;-75
2022/10/29 13:02:17;;;;;;;;;;;13.50;99.90;;;;;;5054642;28;20039;-75
2022/10/29 13:05:05;;;;;;;80.40;37.03;;;13.60;99.90;;;;;;5072559;28;19908;-74
2022/10/29 13:07:31;;;;;;;74.88;36.88;;;13.60;99.90;;;;;;5055643;28;20040;-75
2022/10/29 13:10:28;;;;;;;87.43;40.08;;;13.60;99.90;;;;;;5073058;28;20036;-75
2022/10/29 13:13:12;;;;;;;76.32;37.22;;;13.60;99.90;;;;;;5037821;28;20139;-76